Time;durP1;ratioP1;P1;durP2;ratioP2;P2;SDS_P1;SDS_P2;PMS_P1;PMS_P2;Temp;Humidity;BMP_temperature;BMP_pressure;BME280_temperature;BME280_humidity;BME280_pressure;Samples;Min_cycle;Max_cycle;Signal;HPM_P1;HPM_P2
2022/08/01 00:01:11;;;;;;;;;1.00;1.00;;;;;;;;4956172;28;45306;-74
2022/08/01 00:03:37;;;;;;;;;1.00;1.00;;;;;;;;4957165;28;45387;-74
2022/08/01 00:06:02;;;;;;;;;0.67;0.67;;;;;;;;4958983;28;45296;-74
2022/08/01 00:08:27;;;;;;;;;0.33;0.33;;;;;;;;4958968;28;46065;-75
2022/08/01 00:10:52;;;;;;;;;1.33;1.33;;;;;;;;4958196;28;45383;-74
2022/08/01 00:13:17;;;;;;;;;0.33;0.33;;;;;;;;4959043;28;45238;-74
2022/08/01 00:15:43;;;;;;;;;0.00;0.00;;;;;;;;4949339;28;45508;-74
2022/08/01 00:18:08;;;;;;;;;0.00;0.00;;;;;;;;4955000;28;46353;-74
2022/08/01 00:20:33;;;;;;;;;2.00;1.33;;;;;;;;4958898;28;45615;-75
2022/08/01 00:22:58;;;;;;;;;2.00;1.00;;;;;;;;4959015;28;46039;-75
2022/08/01 00:25:23;;;;;;;;;0.67;0.67;;;;;;;;4958507;28;45271;-75
2022/08/01 00:27:49;;;;;;;;;1.33;1.33;;;;;;;;4958999;28;46146;-75
2022/08/01 00:30:14;;;;;;;;;0.00;0.00;;;;;;;;4958492;28;45504;-75
2022/08/01 00:32:39;;;;;;;;;1.00;1.00;;;;;;;;4959147;28;45381;-75
2022/08/01 00:35:04;;;;;;;;;1.00;1.00;;;;;;;;4958739;28;45471;-75
2022/08/01 00:37:29;;;;;;;;;0.33;0.33;;;;;;;;4958334;28;45315;-75
2022/08/01 00:39:55;;;;;;;;;1.00;1.00;;;;;;;;4958546;28;45414;-75
2022/08/01 00:42:20;;;;;;;;;1.00;1.00;;;;;;;;4958327;28;45385;-75
2022/08/01 00:44:45;;;;;;;;;0.00;0.00;;;;;;;;4958517;28;45471;-74
2022/08/01 00:47:10;;;;;;;;;0.33;0.33;;;;;;;;4958619;28;45404;-75
2022/08/01 00:49:36;;;;;;;;;1.33;1.33;;;;;;;;4958955;28;45347;-75
2022/08/01 00:52:02;;;;;;;;;0.33;0.33;;;;;;;;4957791;28;45333;-74
2022/08/01 00:54:27;;;;;;;;;0.67;0.67;;;;;;;;4955028;28;45397;-74
2022/08/01 00:56:53;;;;;;;;;2.00;1.00;;;;;;;;4958403;28;46994;-75
2022/08/01 00:59:20;;;;;;;;;1.00;1.00;;;;;;;;4958481;28;45368;-74
2022/08/01 01:01:45;;;;;;;;;2.00;2.00;;;;;;;;4958336;28;45418;-75
2022/08/01 01:04:11;;;;;;;;;1.00;1.00;;;;;;;;4956744;28;45529;-73
2022/08/01 01:06:41;;;;;;;;;1.00;1.00;;;;;;;;4958269;28;46107;-75
2022/08/01 01:09:23;;;;;;;;;1.00;1.00;;;;;;;;4957847;28;45409;-74
2022/08/01 01:11:55;;;;;;;;;1.00;1.00;;;;;;;;4958366;28;45357;-75
2022/08/01 01:14:30;;;;;;;;;1.00;1.00;;;;;;;;4957877;28;45365;-74
2022/08/01 01:16:57;;;;;;;;;1.00;1.00;;;;;;;;4955766;28;46391;-73
2022/08/01 01:19:24;;;;;;;;;0.33;0.33;;;;;;;;4958353;28;45439;-74
2022/08/01 01:22:08;;;;;;;;;0.67;0.67;;;;;;;;4958045;28;45372;-75
2022/08/01 01:24:36;;;;;;;;;0.67;0.67;;;;;;;;4957654;28;45393;-74
2022/08/01 01:27:07;;;;;;;;;0.00;0.00;;;;;;;;4957818;28;46325;-75
2022/08/01 01:29:33;;;;;;;;;1.00;1.00;;;;;;;;4958006;28;45481;-75
2022/08/01 01:32:07;;;;;;;;;0.33;0.33;;;;;;;;4957708;28;45433;-75
2022/08/01 01:34:35;;;;;;;;;0.67;0.67;;;;;;;;4957852;28;45403;-74
2022/08/01 01:37:01;;;;;;;;;1.00;1.00;;;;;;;;4957276;28;46304;-73
2022/08/01 01:39:28;;;;;;;;;1.00;1.00;;;;;;;;4957006;28;45420;-75
2022/08/01 01:41:54;;;;;;;;;0.33;0.00;;;;;;;;4957551;28;45279;-74
2022/08/01 01:44:20;;;;;;;;;0.33;0.33;;;;;;;;4957766;28;46184;-75
2022/08/01 01:46:46;;;;;;;;;0.00;0.00;;;;;;;;4957478;28;46248;-74
2022/08/01 01:49:11;;;;;;;;;0.00;0.00;;;;;;;;4957596;28;45287;-75
2022/08/01 01:51:37;;;;;;;;;1.00;1.00;;;;;;;;4957418;28;45821;-74
2022/08/01 01:54:04;;;;;;;;;0.33;0.33;;;;;;;;4957169;28;45377;-74
2022/08/01 01:56:29;;;;;;;;;0.33;0.33;;;;;;;;4956856;28;47118;-74
2022/08/01 01:58:56;;;;;;;;;0.00;0.00;;;;;;;;4957473;28;45422;-74
2022/08/01 02:01:23;;;;;;;;;1.00;1.00;;;;;;;;4957834;28;45432;-74
2022/08/01 02:03:49;;;;;;;;;0.67;0.67;;;;;;;;4957442;28;45410;-74
2022/08/01 02:06:15;;;;;;;;;0.00;0.00;;;;;;;;4943623;28;45278;-74
2022/08/01 02:08:42;;;;;;;;;2.00;1.00;;;;;;;;4957305;28;45279;-75
2022/08/01 02:11:19;;;;;;;;;1.00;1.00;;;;;;;;4957418;28;45283;-74
2022/08/01 02:13:47;;;;;;;;;1.00;1.00;;;;;;;;4956746;28;45528;-74
2022/08/01 02:16:13;;;;;;;;;1.00;1.00;;;;;;;;4943292;28;46052;-74
2022/08/01 02:18:39;;;;;;;;;0.33;0.33;;;;;;;;4957081;28;45348;-74
2022/08/01 02:21:05;;;;;;;;;0.67;0.67;;;;;;;;4956808;28;45448;-74
2022/08/01 02:23:35;;;;;;;;;0.00;0.00;;;;;;;;4957211;28;45465;-75
2022/08/01 02:26:02;;;;;;;;;2.00;1.00;;;;;;;;4956047;28;46313;-74
2022/08/01 02:28:30;;;;;;;;;2.00;0.67;;;;;;;;4957143;28;45482;-74
2022/08/01 02:31:00;;;;;;;;;0.67;0.67;;;;;;;;4957143;28;45385;-74
2022/08/01 02:33:32;;;;;;;;;1.00;1.00;;;;;;;;4956839;28;45428;-74
2022/08/01 02:35:58;;;;;;;;;1.00;1.00;;;;;;;;4956541;28;46398;-74
2022/08/01 02:38:26;;;;;;;;;1.00;1.00;;;;;;;;4956053;28;45480;-74
2022/08/01 02:40:54;;;;;;;;;1.00;1.00;;;;;;;;4957095;28;45665;-74
2022/08/01 02:43:23;;;;;;;;;1.00;1.00;;;;;;;;4956805;28;45322;-75
2022/08/01 02:45:51;;;;;;;;;2.00;0.00;;;;;;;;4956013;28;45725;-75
2022/08/01 02:48:18;;;;;;;;;0.33;0.33;;;;;;;;4956532;28;45353;-74
2022/08/01 02:50:45;;;;;;;;;1.00;1.00;;;;;;;;4956343;28;45347;-74
2022/08/01 02:53:12;;;;;;;;;0.00;0.00;;;;;;;;4952739;28;45429;-75
2022/08/01 02:55:39;;;;;;;;;0.00;0.00;;;;;;;;4956554;28;46955;-74
2022/08/01 02:58:06;;;;;;;;;0.00;0.00;;;;;;;;4956239;28;45575;-75
2022/08/01 03:00:32;;;;;;;;;1.00;1.00;;;;;;;;4956487;28;45421;-74
2022/08/01 03:02:59;;;;;;;;;1.67;1.67;;;;;;;;4956636;28;45465;-75
2022/08/01 03:05:25;;;;;;;;;1.00;1.00;;;;;;;;4956099;28;45379;-75
2022/08/01 03:07:51;;;;;;;;;1.33;1.33;;;;;;;;4956629;28;45330;-75
2022/08/01 03:10:17;;;;;;;;;0.00;0.00;;;;;;;;4956840;28;45363;-75
2022/08/01 03:12:44;;;;;;;;;1.00;1.00;;;;;;;;4955959;28;45530;-74
2022/08/01 03:15:10;;;;;;;;;1.00;1.00;;;;;;;;4951316;28;46215;-74
2022/08/01 03:17:36;;;;;;;;;0.00;0.00;;;;;;;;4956391;28;45443;-73
2022/08/01 03:20:03;;;;;;;;;1.00;1.00;;;;;;;;4953675;28;45359;-74
2022/08/01 03:22:29;;;;;;;;;0.67;0.67;;;;;;;;4956489;28;45392;-74
2022/08/01 03:24:56;;;;;;;;;0.00;0.00;;;;;;;;4956207;28;45345;-74
2022/08/01 03:27:24;;;;;;;;;0.33;0.33;;;;;;;;4956144;28;45450;-75
2022/08/01 03:29:50;;;;;;;;;1.00;1.00;;;;;;;;4956292;28;45315;-75
2022/08/01 03:32:16;;;;;;;;;0.00;0.00;;;;;;;;4956278;28;45477;-74
2022/08/01 03:34:42;;;;;;;;;0.00;0.00;;;;;;;;4955681;28;46410;-74
2022/08/01 03:37:07;;;;;;;;;0.00;0.00;;;;;;;;4942602;28;45370;-74
2022/08/01 03:39:39;;;;;;;;;2.00;2.00;;;;;;;;4958084;28;45406;-75
2022/08/01 03:42:09;;;;;;;;;1.00;1.00;;;;;;;;4959337;28;45410;-74
2022/08/01 03:44:38;;;;;;;;;0.67;0.67;;;;;;;;4959259;28;47251;-76
2022/08/01 03:47:05;;;;;;;;;0.00;0.00;;;;;;;;4959421;28;45588;-76
2022/08/01 03:49:32;;;;;;;;;1.00;1.00;;;;;;;;4959597;28;45434;-75
2022/08/01 03:51:59;;;;;;;;;0.33;0.33;;;;;;;;4959150;28;45575;-75
2022/08/01 03:54:25;;;;;;;;;1.00;1.00;;;;;;;;4959309;28;45377;-75
2022/08/01 03:56:51;;;;;;;;;0.00;0.00;;;;;;;;4959265;28;45331;-75
2022/08/01 03:59:17;;;;;;;;;0.00;0.00;;;;;;;;4958658;28;45303;-76
2022/08/01 04:01:43;;;;;;;;;0.00;0.00;;;;;;;;4959221;28;46287;-76
2022/08/01 04:04:09;;;;;;;;;0.00;0.00;;;;;;;;4958568;28;46131;-75
2022/08/01 04:06:37;;;;;;;;;0.00;0.00;;;;;;;;4958867;28;45318;-74
2022/08/01 04:09:02;;;;;;;;;1.00;1.00;;;;;;;;4954572;28;45315;-74
2022/08/01 04:11:28;;;;;;;;;1.00;1.00;;;;;;;;4959014;28;45299;-75
2022/08/01 04:13:54;;;;;;;;;0.00;0.00;;;;;;;;4952825;28;46653;-75
2022/08/01 04:16:19;;;;;;;;;0.67;0.67;;;;;;;;4953319;28;45309;-74
2022/08/01 04:18:45;;;;;;;;;0.00;0.00;;;;;;;;4959042;28;45283;-75
2022/08/01 04:21:10;;;;;;;;;0.00;0.00;;;;;;;;4959347;28;45324;-75
2022/08/01 04:23:36;;;;;;;;;0.00;0.00;;;;;;;;4958721;28;46047;-74
2022/08/01 04:26:04;;;;;;;;;0.67;0.67;;;;;;;;4959103;28;45389;-74
2022/08/01 04:28:31;;;;;;;;;0.00;0.00;;;;;;;;4959253;28;45374;-75
2022/08/01 04:30:57;;;;;;;;;0.00;0.00;;;;;;;;4958794;28;45322;-74
2022/08/01 04:33:25;;;;;;;;;0.00;0.00;;;;;;;;4957937;28;47218;-74
2022/08/01 04:35:52;;;;;;;;;1.00;1.00;;;;;;;;4958628;28;45421;-75
2022/08/01 04:38:19;;;;;;;;;1.67;1.67;;;;;;;;4945799;28;45295;-75
2022/08/01 04:40:45;;;;;;;;;0.00;0.00;;;;;;;;4952914;28;45597;-75
2022/08/01 04:43:11;;;;;;;;;0.00;0.00;;;;;;;;4958490;28;45346;-75
2022/08/01 04:45:36;;;;;;;;;0.67;0.67;;;;;;;;4958845;28;45524;-74
2022/08/01 04:48:06;;;;;;;;;1.00;1.00;;;;;;;;4958554;28;45269;-75
2022/08/01 04:50:31;;;;;;;;;1.00;0.00;;;;;;;;4958459;28;45577;-74
2022/08/01 04:52:56;;;;;;;;;0.00;0.00;;;;;;;;4958519;28;45303;-74
2022/08/01 04:55:22;;;;;;;;;0.00;0.00;;;;;;;;4957977;28;45679;-74
2022/08/01 04:57:47;;;;;;;;;1.00;1.00;;;;;;;;4958922;28;45377;-74
2022/08/01 05:00:12;;;;;;;;;1.00;1.00;;;;;;;;4958159;28;45528;-74
2022/08/01 05:02:38;;;;;;;;;0.00;0.00;;;;;;;;4958108;28;46939;-73
2022/08/01 05:05:05;;;;;;;;;1.00;1.00;;;;;;;;4953377;28;45224;-74
2022/08/01 05:07:30;;;;;;;;;1.00;0.00;;;;;;;;4956983;28;45536;-74
2022/08/01 05:09:56;;;;;;;;;0.33;0.33;;;;;;;;4969891;28;45444;-74
2022/08/01 05:12:21;;;;;;;;;2.00;0.00;;;;;;;;4957852;28;45286;-75
2022/08/01 05:14:46;;;;;;;;;1.00;1.00;;;;;;;;4955860;28;45318;-74
2022/08/01 05:17:11;;;;;;;;;1.00;1.00;;;;;;;;4946962;28;45411;-74
2022/08/01 05:19:37;;;;;;;;;0.67;0.67;;;;;;;;4953579;28;45330;-74
2022/08/01 05:22:06;;;;;;;;;2.33;1.00;;;;;;;;4944334;28;47371;-73
2022/08/01 05:24:32;;;;;;;;;1.00;1.00;;;;;;;;4958444;28;45421;-74
2022/08/01 05:26:58;;;;;;;;;0.00;0.00;;;;;;;;4958031;28;46359;-75
2022/08/01 05:29:23;;;;;;;;;1.00;1.00;;;;;;;;4957655;28;45308;-75
2022/08/01 05:31:49;;;;;;;;;1.00;1.00;;;;;;;;4957670;28;47283;-75
2022/08/01 05:34:14;;;;;;;;;0.00;0.00;;;;;;;;4957874;28;45465;-75
2022/08/01 05:36:39;;;;;;;;;0.67;0.67;;;;;;;;4957716;28;45331;-74
2022/08/01 05:39:04;;;;;;;;;0.67;0.67;;;;;;;;4957808;28;45413;-74
2022/08/01 05:41:30;;;;;;;;;1.00;1.00;;;;;;;;4957465;28;45471;-74
2022/08/01 05:43:55;;;;;;;;;1.00;1.00;;;;;;;;4957199;28;45372;-77
2022/08/01 05:46:20;;;;;;;;;1.00;1.00;;;;;;;;4957852;28;45492;-77
2022/08/01 05:48:45;;;;;;;;;0.33;0.33;;;;;;;;4957880;28;45434;-78
2022/08/01 05:51:11;;;;;;;;;0.00;0.00;;;;;;;;4957854;28;47067;-75
2022/08/01 05:53:36;;;;;;;;;1.00;1.00;;;;;;;;4957460;28;45443;-76
2022/08/01 05:56:01;;;;;;;;;4.67;4.67;;;;;;;;4955681;28;45357;-75
2022/08/01 05:58:27;;;;;;;;;8.33;8.00;;;;;;;;4952635;28;45430;-75
2022/08/01 06:00:52;;;;;;;;;9.33;8.00;;;;;;;;4956001;28;45540;-75
2022/08/01 06:03:17;;;;;;;;;7.67;7.67;;;;;;;;4956951;28;45551;-76
2022/08/01 06:05:43;;;;;;;;;7.33;6.33;;;;;;;;4957394;28;45369;-75
2022/08/01 06:08:08;;;;;;;;;7.00;7.00;;;;;;;;4957733;28;45342;-78
2022/08/01 06:10:33;;;;;;;;;7.33;5.00;;;;;;;;4951265;28;46087;-75
2022/08/01 06:13:02;;;;;;;;;5.67;5.00;;;;;;;;4953625;28;45560;-73
2022/08/01 06:15:27;;;;;;;;;6.00;6.00;;;;;;;;4950193;28;45434;-74
2022/08/01 06:17:53;;;;;;;;;5.33;5.33;;;;;;;;4949790;28;45322;-73
2022/08/01 06:20:18;;;;;;;;;6.67;5.33;;;;;;;;4956881;28;45354;-75
2022/08/01 06:22:43;;;;;;;;;5.00;5.00;;;;;;;;4957256;28;45293;-77
2022/08/01 06:25:08;;;;;;;;;2.67;2.67;;;;;;;;4956726;28;45303;-75
2022/08/01 06:27:34;;;;;;;;;8.00;8.00;;;;;;;;4971125;28;45389;-78
2022/08/01 06:29:59;;;;;;;;;7.33;7.33;;;;;;;;4951448;28;46063;-78
2022/08/01 06:32:26;;;;;;;;;4.00;4.00;;;;;;;;4956347;28;45384;-74
2022/08/01 06:34:51;;;;;;;;;6.00;6.00;;;;;;;;4950695;28;45367;-74
2022/08/01 06:37:16;;;;;;;;;8.33;8.00;;;;;;;;4956870;28;45393;-75
2022/08/01 06:39:41;;;;;;;;;4.67;4.67;;;;;;;;4956407;28;46097;-75
2022/08/01 06:42:06;;;;;;;;;6.33;6.33;;;;;;;;4955404;28;45494;-74
2022/08/01 06:44:32;;;;;;;;;5.00;5.00;;;;;;;;4956643;28;45373;-75
2022/08/01 06:47:00;;;;;;;;;6.00;6.00;;;;;;;;4956807;28;45537;-74
2022/08/01 06:49:25;;;;;;;;;4.33;4.33;;;;;;;;4956667;28;46024;-75
2022/08/01 06:51:50;;;;;;;;;5.67;5.00;;;;;;;;4956674;28;45338;-75
2022/08/01 06:54:16;;;;;;;;;5.00;4.00;;;;;;;;4956776;28;45494;-74
2022/08/01 06:56:41;;;;;;;;;4.33;4.33;;;;;;;;4955984;28;45233;-75
2022/08/01 06:59:06;;;;;;;;;4.00;4.00;;;;;;;;4956618;28;45362;-75
2022/08/01 07:01:31;;;;;;;;;7.00;5.33;;;;;;;;4956283;28;45589;-74
2022/08/01 07:03:56;;;;;;;;;6.00;6.00;;;;;;;;4956493;28;45433;-75
2022/08/01 07:06:23;;;;;;;;;6.33;6.00;;;;;;;;4956810;28;45370;-75
2022/08/01 07:08:48;;;;;;;;;5.00;5.00;;;;;;;;4954828;28;45958;-75
2022/08/01 07:11:13;;;;;;;;;6.00;6.00;;;;;;;;4956197;28;45387;-75
2022/08/01 07:13:38;;;;;;;;;4.33;3.00;;;;;;;;4958769;28;45682;-75
2022/08/01 07:16:03;;;;;;;;;4.67;3.33;;;;;;;;4960198;28;45367;-74
2022/08/01 07:18:29;;;;;;;;;7.33;5.00;;;;;;;;4959712;28;46127;-75
2022/08/01 07:20:54;;;;;;;;;5.67;4.67;;;;;;;;4959920;28;45430;-74
2022/08/01 07:23:20;;;;;;;;;7.00;6.33;;;;;;;;4959755;28;45441;-75
2022/08/01 07:25:45;;;;;;;;;7.00;7.00;;;;;;;;4959797;28;45482;-75
2022/08/01 07:28:10;;;;;;;;;6.00;5.33;;;;;;;;4959725;28;45278;-74
2022/08/01 07:30:36;;;;;;;;;3.67;2.67;;;;;;;;4959877;28;45306;-75
2022/08/01 07:33:01;;;;;;;;;5.67;5.00;;;;;;;;4959987;28;45457;-74
2022/08/01 07:35:26;;;;;;;;;7.33;6.00;;;;;;;;4959189;28;45378;-75
2022/08/01 07:37:53;;;;;;;;;4.00;4.00;;;;;;;;4959988;28;45384;-75
2022/08/01 07:40:18;;;;;;;;;7.00;6.33;;;;;;;;4959208;28;45339;-74
2022/08/01 07:42:44;;;;;;;;;5.00;4.67;;;;;;;;4959115;28;45300;-75
2022/08/01 07:45:10;;;;;;;;;4.33;4.33;;;;;;;;4959760;28;45369;-75
2022/08/01 07:47:35;;;;;;;;;6.33;6.00;;;;;;;;4959512;28;46913;-74
2022/08/01 07:50:02;;;;;;;;;6.67;6.67;;;;;;;;4959377;28;45406;-75
2022/08/01 07:52:27;;;;;;;;;5.00;5.00;;;;;;;;4959065;28;45597;-74
2022/08/01 07:54:52;;;;;;;;;4.67;4.67;;;;;;;;4949895;28;45316;-75
2022/08/01 07:57:18;;;;;;;;;5.00;5.00;;;;;;;;4959230;28;45283;-74
2022/08/01 07:59:43;;;;;;;;;5.33;5.33;;;;;;;;4959158;28;45351;-75
2022/08/01 08:02:08;;;;;;;;;5.33;5.33;;;;;;;;4959309;28;45354;-74
2022/08/01 08:04:34;;;;;;;;;5.67;5.00;;;;;;;;4959511;28;45467;-75
2022/08/01 08:06:59;;;;;;;;;5.00;5.00;;;;;;;;4959009;28;46336;-75
2022/08/01 08:09:24;;;;;;;;;5.00;5.00;;;;;;;;4958832;28;45339;-75
2022/08/01 08:11:49;;;;;;;;;5.67;5.00;;;;;;;;4959136;28;45283;-74
2022/08/01 08:14:15;;;;;;;;;6.00;6.00;;;;;;;;4959169;28;45227;-74
2022/08/01 08:16:41;;;;;;;;;6.00;4.33;;;;;;;;4953591;28;45504;-74
2022/08/01 08:19:06;;;;;;;;;4.67;4.67;;;;;;;;4959183;28;45860;-75
2022/08/01 08:21:31;;;;;;;;;5.00;5.00;;;;;;;;4957801;28;45342;-75
2022/08/01 08:26:40;;;;;;;;;5.00;5.00;;;;;;;;4958660;28;45388;-74
2022/08/01 08:29:06;;;;;;;;;6.00;6.00;;;;;;;;4959138;28;45485;-74
2022/08/01 08:31:31;;;;;;;;;5.00;5.00;;;;;;;;4958700;28;45398;-74
2022/08/01 08:33:56;;;;;;;;;6.00;3.33;;;;;;;;4945295;28;45406;-74
2022/08/01 08:36:21;;;;;;;;;4.00;4.00;;;;;;;;4947281;28;45393;-74
2022/08/01 08:38:47;;;;;;;;;3.33;3.33;;;;;;;;4954806;28;45425;-75
2022/08/01 08:41:12;;;;;;;;;4.67;4.00;;;;;;;;4958522;28;45625;-75
2022/08/01 08:43:38;;;;;;;;;5.00;4.00;;;;;;;;4958607;28;45414;-75
2022/08/01 08:46:04;;;;;;;;;4.00;4.00;;;;;;;;4958670;28;45363;-74
2022/08/01 08:48:30;;;;;;;;;4.33;4.33;;;;;;;;4958694;28;45351;-75
2022/08/01 08:50:57;;;;;;;;;3.33;3.33;;;;;;;;4958522;28;45287;-74
2022/08/01 08:53:23;;;;;;;;;5.00;3.67;;;;;;;;4958223;28;45358;-74
2022/08/01 08:55:48;;;;;;;;;3.67;3.67;;;;;;;;4958213;28;45298;-75
2022/08/01 08:58:14;;;;;;;;;6.00;6.00;;;;;;;;4958610;28;45418;-75
2022/08/01 09:00:40;;;;;;;;;4.67;4.67;;;;;;;;4958575;28;45583;-75
2022/08/01 09:03:05;;;;;;;;;5.00;5.00;;;;;;;;4958746;28;45572;-74
2022/08/01 09:05:30;;;;;;;;;6.00;6.00;;;;;;;;4958258;28;46311;-74
2022/08/01 09:07:55;;;;;;;;;2.33;2.33;;;;;;;;4957989;28;45329;-74
2022/08/01 09:10:21;;;;;;;;;4.00;4.00;;;;;;;;4958562;28;45389;-75
2022/08/01 09:13:02;;;;;;;;;6.00;6.00;;;;;;;;4957898;28;45393;-75
2022/08/01 09:15:52;;;;;;;;;6.00;5.00;;;;;;;;4957765;28;46503;-74
2022/08/01 09:18:44;;;;;;;;;3.67;3.67;;;;;;;;4957583;28;45398;-75
2022/08/01 09:21:20;;;;;;;;;6.00;6.00;;;;;;;;4958740;28;45382;-74
2022/08/01 09:23:49;;;;;;;;;5.33;5.00;;;;;;;;4958178;28;45490;-74
2022/08/01 09:26:16;;;;;;;;;6.00;4.67;;;;;;;;4957741;28;46385;-74
2022/08/01 09:28:42;;;;;;;;;6.00;4.67;;;;;;;;4958014;28;45388;-75
2022/08/01 09:31:12;;;;;;;;;6.67;4.00;;;;;;;;4958285;28;45271;-75
2022/08/01 09:33:47;;;;;;;;;7.00;5.00;;;;;;;;4957691;28;45298;-74
2022/08/01 09:36:12;;;;;;;;;3.67;3.67;;;;;;;;4956172;28;45353;-75
2022/08/01 09:38:38;;;;;;;;;7.00;6.00;;;;;;;;4957879;28;45454;-75
2022/08/01 09:41:03;;;;;;;;;7.67;6.00;;;;;;;;4957869;28;45250;-75
2022/08/01 09:43:30;;;;;;;;;6.00;6.00;;;;;;;;4957503;28;45463;-75
2022/08/01 09:45:55;;;;;;;;;2.00;2.00;;;;;;;;4973027;28;46516;-75
2022/08/01 09:48:21;;;;;;;;;5.00;5.00;;;;;;;;4957764;28;45421;-75
2022/08/01 09:50:49;;;;;;;;;4.00;4.00;;;;;;;;4957530;28;45398;-75
2022/08/01 09:53:15;;;;;;;;;5.33;5.33;;;;;;;;4957872;28;45367;-74
2022/08/01 09:55:40;;;;;;;;;4.67;4.67;;;;;;;;4957298;28;45971;-74
2022/08/01 09:58:06;;;;;;;;;4.00;4.00;;;;;;;;4957738;28;45365;-75
2022/08/01 10:00:32;;;;;;;;;5.00;5.00;;;;;;;;4957300;28;45374;-75
2022/08/01 10:02:58;;;;;;;;;5.33;4.00;;;;;;;;4957214;28;45334;-73
2022/08/01 10:05:34;;;;;;;;;6.00;6.00;;;;;;;;4956821;28;47273;-75
2022/08/01 10:08:01;;;;;;;;;6.00;6.00;;;;;;;;4957421;28;45298;-75
2022/08/01 10:10:27;;;;;;;;;4.67;4.00;;;;;;;;4957484;28;45288;-74
2022/08/01 10:12:52;;;;;;;;;3.67;3.33;;;;;;;;4956751;28;45396;-74
2022/08/01 10:15:18;;;;;;;;;4.67;4.67;;;;;;;;4951753;28;46113;-74
2022/08/01 10:17:54;;;;;;;;;5.00;5.00;;;;;;;;4957554;28;45256;-75
2022/08/01 10:20:20;;;;;;;;;8.00;6.33;;;;;;;;4951518;28;45378;-74
2022/08/01 10:22:46;;;;;;;;;6.67;6.00;;;;;;;;4949527;28;45367;-75
2022/08/01 10:25:16;;;;;;;;;5.00;5.00;;;;;;;;4956689;28;45342;-74
2022/08/01 10:27:42;;;;;;;;;5.00;5.00;;;;;;;;4957200;28;45296;-75
2022/08/01 10:30:09;;;;;;;;;3.33;3.33;;;;;;;;4957140;28;45375;-75
2022/08/01 10:32:35;;;;;;;;;6.00;4.67;;;;;;;;4956435;28;45497;-75
2022/08/01 10:35:00;;;;;;;;;4.33;4.33;;;;;;;;4956380;28;45521;-75
2022/08/01 10:37:26;;;;;;;;;6.33;5.00;;;;;;;;4956691;28;45396;-75
2022/08/01 10:39:52;;;;;;;;;6.00;6.00;;;;;;;;4957161;28;45396;-75
2022/08/01 10:42:17;;;;;;;;;5.00;5.00;;;;;;;;4956739;28;45446;-75
2022/08/01 10:44:46;;;;;;;;;7.00;6.00;;;;;;;;4957008;28;45405;-75
2022/08/01 10:47:12;;;;;;;;;6.00;6.00;;;;;;;;4956634;28;45295;-75
2022/08/01 10:49:42;;;;;;;;;5.67;5.67;;;;;;;;4956237;28;45448;-75
2022/08/01 10:52:13;;;;;;;;;4.67;4.67;;;;;;;;4956751;28;45466;-75
2022/08/01 10:54:40;;;;;;;;;6.00;6.00;;;;;;;;4956482;28;45289;-75
2022/08/01 10:57:06;;;;;;;;;6.00;6.00;;;;;;;;4956544;28;46076;-75
2022/08/01 10:59:32;;;;;;;;;5.00;5.00;;;;;;;;4956985;28;45389;-75
2022/08/01 11:02:02;;;;;;;;;4.00;4.00;;;;;;;;4956735;28;45415;-75
2022/08/01 11:04:33;;;;;;;;;7.00;6.00;;;;;;;;4956206;28;46617;-74
2022/08/01 11:07:04;;;;;;;;;5.00;5.00;;;;;;;;4956345;28;45365;-74
2022/08/01 11:09:30;;;;;;;;;4.67;4.67;;;;;;;;4956732;28;45366;-75
2022/08/01 11:11:55;;;;;;;;;5.33;4.67;;;;;;;;4954875;28;45420;-74
2022/08/01 11:14:20;;;;;;;;;5.00;5.00;;;;;;;;4956420;28;45314;-75
2022/08/01 11:16:46;;;;;;;;;6.00;4.00;;;;;;;;4943010;28;45395;-74
2022/08/01 11:19:11;;;;;;;;;6.00;6.00;;;;;;;;4956316;28;45404;-74
2022/08/01 11:21:51;;;;;;;;;8.00;6.67;;;;;;;;4956363;28;45346;-73
2022/08/01 11:24:36;;;;;;;;;7.00;6.00;;;;;;;;4956420;28;45380;-75
2022/08/01 11:27:17;;;;;;;;;8.00;7.00;;;;;;;;4956246;28;45482;-74
2022/08/01 11:29:42;;;;;;;;;8.00;7.00;;;;;;;;4956643;28;45395;-74
2022/08/01 11:32:23;;;;;;;;;6.00;6.00;;;;;;;;4955849;28;45318;-75
2022/08/01 11:34:52;;;;;;;;;5.33;5.33;;;;;;;;4956108;28;46251;-74
2022/08/01 11:37:26;;;;;;;;;6.00;6.00;;;;;;;;4955813;28;45298;-75
2022/08/01 11:40:11;;;;;;;;;7.00;6.00;;;;;;;;4956556;28;45471;-75
2022/08/01 11:42:37;;;;;;;;;7.67;7.67;;;;;;;;4955958;28;45350;-74
2022/08/01 11:45:02;;;;;;;;;6.00;5.00;;;;;;;;4956173;28;45480;-75
2022/08/01 11:47:47;;;;;;;;;6.00;6.00;;;;;;;;4942216;28;45408;-73
2022/08/01 11:50:29;;;;;;;;;4.00;4.00;;;;;;;;4950645;28;45397;-75
2022/08/01 11:52:58;;;;;;;;;5.00;5.00;;;;;;;;4950305;28;45396;-74
2022/08/01 11:55:24;;;;;;;;;5.33;5.33;;;;;;;;4955879;28;46065;-74
2022/08/01 11:57:49;;;;;;;;;4.00;4.00;;;;;;;;4955808;28;45436;-75
2022/08/01 12:00:16;;;;;;;;;6.33;6.33;;;;;;;;4957593;28;45482;-75
2022/08/01 12:02:41;;;;;;;;;8.00;6.00;;;;;;;;4959128;28;45377;-75
2022/08/01 12:05:14;;;;;;;;;5.67;5.67;;;;;;;;4959403;28;47266;-75
2022/08/01 12:07:41;;;;;;;;;7.00;6.00;;;;;;;;4959026;28;45395;-75
2022/08/01 12:10:09;;;;;;;;;6.33;6.33;;;;;;;;4959358;28;45341;-74
2022/08/01 12:12:35;;;;;;;;;5.00;5.00;;;;;;;;4958575;28;45464;-75
2022/08/01 12:15:02;;;;;;;;;7.00;7.00;;;;;;;;4955130;28;45353;-75
2022/08/01 12:17:36;;;;;;;;;6.33;5.33;;;;;;;;4957247;28;45531;-75
2022/08/01 12:20:06;;;;;;;;;4.67;4.67;;;;;;;;4959236;28;45393;-74
2022/08/01 12:22:32;;;;;;;;;5.00;5.00;;;;;;;;4958904;28;45440;-75
2022/08/01 12:25:04;;;;;;;;;6.33;6.00;;;;;;;;4958673;28;46078;-75
2022/08/01 12:27:30;;;;;;;;;5.33;5.00;;;;;;;;4954675;28;45274;-75
2022/08/01 12:29:57;;;;;;;;;6.00;6.00;;;;;;;;4953646;28;45376;-75
2022/08/01 12:32:24;;;;;;;;;6.33;6.00;;;;;;;;4958439;28;45210;-74
2022/08/01 12:34:49;;;;;;;;;6.67;6.67;;;;;;;;4958442;28;46382;-74
2022/08/01 12:37:15;;;;;;;;;6.00;6.00;;;;;;;;4958653;28;45363;-75
2022/08/01 12:39:40;;;;;;;;;6.00;6.00;;;;;;;;4958722;28;45354;-74
2022/08/01 12:42:07;;;;;;;;;6.33;5.67;;;;;;;;4958780;28;45279;-74
2022/08/01 12:44:32;;;;;;;;;4.00;4.00;;;;;;;;4958352;28;46477;-75
2022/08/01 12:46:57;;;;;;;;;6.33;6.33;;;;;;;;4957106;28;45430;-74
2022/08/01 12:49:23;;;;;;;;;5.67;5.67;;;;;;;;4958483;28;45378;-75
2022/08/01 12:51:49;;;;;;;;;5.33;5.33;;;;;;;;4958356;28;45611;-74
2022/08/01 12:54:14;;;;;;;;;6.67;6.67;;;;;;;;4958568;28;45347;-75
2022/08/01 12:56:39;;;;;;;;;6.33;6.33;;;;;;;;4958682;28;45287;-75
2022/08/01 12:59:24;;;;;;;;;7.00;5.33;;;;;;;;4958223;28;45350;-75
2022/08/01 13:01:50;;;;;;;;;6.33;5.33;;;;;;;;4958171;28;45441;-75
2022/08/01 13:04:15;;;;;;;;;5.67;5.67;;;;;;;;4949430;28;45874;-75
2022/08/01 13:06:41;;;;;;;;;6.67;6.67;;;;;;;;4958381;28;45355;-75
2022/08/01 13:09:13;;;;;;;;;3.67;3.67;;;;;;;;4958557;28;45290;-75
2022/08/01 13:11:39;;;;;;;;;5.00;5.00;;;;;;;;4958129;28;46397;-74
2022/08/01 13:14:04;;;;;;;;;4.33;4.33;;;;;;;;4957636;28;46975;-74
2022/08/01 13:16:29;;;;;;;;;7.00;7.00;;;;;;;;4950632;28;45415;-75
2022/08/01 13:18:58;;;;;;;;;4.67;4.67;;;;;;;;4947014;28;45457;-73
2022/08/01 13:21:23;;;;;;;;;5.00;5.00;;;;;;;;4957839;28;45334;-74
2022/08/01 13:24:18;;;;;;;;;8.00;6.00;;;;;;;;4958273;28;46297;-75
2022/08/01 13:26:47;;;;;;;;;7.00;7.00;;;;;;;;4951352;28;45534;-75
2022/08/01 13:29:13;;;;;;;;;6.33;6.00;;;;;;;;4956687;28;45369;-74
2022/08/01 13:31:39;;;;;;;;;5.00;5.00;;;;;;;;4957183;28;45429;-74
2022/08/01 13:34:05;;;;;;;;;5.00;5.00;;;;;;;;4957525;28;45366;-74
2022/08/01 13:36:30;;;;;;;;;5.33;5.33;;;;;;;;4957665;28;45503;-75
2022/08/01 13:41:40;;;;;;;;;6.00;6.00;;;;;;;;4951693;28;45400;-74
2022/08/01 13:44:05;;;;;;;;;6.67;6.67;;;;;;;;4956949;28;46287;-73
2022/08/01 13:46:30;;;;;;;;;5.00;5.00;;;;;;;;4958153;28;45445;-75
2022/08/01 13:48:56;;;;;;;;;4.33;4.33;;;;;;;;4957875;28;45250;-74
2022/08/01 13:51:21;;;;;;;;;7.00;7.00;;;;;;;;4957513;28;45160;-74
2022/08/01 13:53:46;;;;;;;;;7.33;6.33;;;;;;;;4957444;28;47409;-74
2022/08/01 13:56:11;;;;;;;;;6.00;6.00;;;;;;;;4957730;28;45567;-74
2022/08/01 13:58:37;;;;;;;;;6.00;6.00;;;;;;;;4957632;28;45407;-75
2022/08/01 14:01:02;;;;;;;;;6.00;6.00;;;;;;;;4957363;28;45530;-74
2022/08/01 14:03:27;;;;;;;;;4.00;4.00;;;;;;;;4957292;28;46096;-75
2022/08/01 14:05:53;;;;;;;;;4.33;4.33;;;;;;;;4957533;28;45359;-74
2022/08/01 14:08:18;;;;;;;;;5.00;5.00;;;;;;;;4953195;28;45364;-75
2022/08/01 14:10:43;;;;;;;;;7.33;5.33;;;;;;;;4952078;28;45490;-75
2022/08/01 14:13:08;;;;;;;;;5.67;5.67;;;;;;;;4957146;28;46292;-75
2022/08/01 14:15:34;;;;;;;;;6.00;6.00;;;;;;;;4956331;28;45400;-75
2022/08/01 14:17:59;;;;;;;;;5.00;5.00;;;;;;;;4957526;28;45649;-73
2022/08/01 14:20:25;;;;;;;;;4.33;4.33;;;;;;;;4957458;28;45410;-75
2022/08/01 14:22:50;;;;;;;;;8.00;6.33;;;;;;;;4956290;28;46764;-74
2022/08/01 14:25:17;;;;;;;;;5.00;5.00;;;;;;;;4957033;28;45497;-74
2022/08/01 14:27:43;;;;;;;;;4.67;4.67;;;;;;;;4957114;28;45393;-75
2022/08/01 14:30:08;;;;;;;;;5.67;5.67;;;;;;;;4956790;28;45502;-75
2022/08/01 14:32:34;;;;;;;;;6.00;6.00;;;;;;;;4957058;28;47044;-74
2022/08/01 14:34:59;;;;;;;;;5.67;4.00;;;;;;;;4956797;28;45390;-74
2022/08/01 14:37:25;;;;;;;;;8.00;6.67;;;;;;;;4957093;28;45286;-75
2022/08/01 14:39:50;;;;;;;;;6.00;6.00;;;;;;;;4956900;28;45213;-73
2022/08/01 14:42:15;;;;;;;;;5.67;4.67;;;;;;;;4956109;28;45482;-74
2022/08/01 14:44:40;;;;;;;;;5.00;5.00;;;;;;;;4957422;28;45476;-74
2022/08/01 14:47:05;;;;;;;;;5.33;5.33;;;;;;;;4957196;28;45488;-74